Time;durP1;ratioP1;P1;durP2;ratioP2;P2;SDS_P1;SDS_P2;PMS_P1;PMS_P2;Temp;Humidity;BMP_temperature;BMP_pressure;BME280_temperature;BME280_humidity;BME280_pressure;Samples;Min_cycle;Max_cycle;Signal;HPM_P1;HPM_P2
2022/04/11 00:00:32;;;;;;;7.80;1.37;;;2.60;99.90;;;;;;5034566;28;20256;-82
2022/04/11 00:02:58;;;;;;;5.53;1.07;;;2.60;99.90;;;;;;5016848;28;20260;-81
2022/04/11 00:05:24;;;;;;;4.13;1.50;;;2.60;99.90;;;;;;5034583;28;20207;-82
2022/04/11 00:07:50;;;;;;;2.20;1.10;;;2.50;99.90;;;;;;5034457;28;20172;-82
2022/04/11 00:10:16;;;;;;;5.00;1.90;;;2.50;99.90;;;;;;5034418;28;20170;-83
2022/04/11 00:12:41;;;;;;;5.37;1.30;;;2.60;99.90;;;;;;5034057;28;20242;-83
2022/04/11 00:15:08;;;;;;;3.47;1.13;;;2.50;99.90;;;;;;5034348;28;20824;-82
2022/04/11 00:17:34;;;;;;;4.50;1.33;;;2.40;99.90;;;;;;5033983;28;20231;-83
2022/04/11 00:19:59;;;;;;;4.47;0.87;;;2.40;99.90;;;;;;5034307;28;20968;-84
2022/04/11 00:22:25;;;;;;;4.23;1.87;;;2.40;99.90;;;;;;5034285;28;20418;-84
2022/04/11 00:24:51;;;;;;;2.47;1.07;;;2.40;99.90;;;;;;5034105;28;20206;-81
2022/04/11 00:27:17;;;;;;;5.50;1.30;;;2.40;99.90;;;;;;5034130;28;20257;-82
2022/04/11 00:29:43;;;;;;;4.03;1.80;;;2.30;99.90;;;;;;5034141;28;20987;-83
2022/04/11 00:32:08;;;;;;;13.87;2.53;;;2.20;99.90;;;;;;5033645;28;20583;-84
2022/04/11 00:34:34;;;;;;;2.93;0.93;;;2.10;99.90;;;;;;5015693;28;20174;-83
2022/04/11 00:36:59;;;;;;;2.87;1.17;;;1.90;99.90;;;;;;5033738;28;20265;-82
2022/04/11 00:39:25;;;;;;;4.00;1.50;;;1.80;99.90;;;;;;5033971;28;20670;-84
2022/04/11 00:41:50;;;;;;;4.00;1.60;;;1.80;99.90;;;;;;5033878;28;20186;-84
2022/04/11 00:44:16;;;;;;;2.50;1.30;;;1.80;99.90;;;;;;5016018;28;20195;-84
2022/04/11 00:46:42;;;;;;;1.60;1.07;;;1.70;99.90;;;;;;5033598;28;20224;-83
2022/04/11 00:49:08;;;;;;;3.83;1.40;;;1.60;99.90;;;;;;5016062;28;20175;-83
2022/04/11 00:51:34;;;;;;;1.60;1.40;;;1.50;99.90;;;;;;4999687;28;20658;-83
2022/04/11 00:54:01;;;;;;;4.67;1.70;;;1.40;99.90;;;;;;5033736;28;20413;-84
2022/04/11 00:56:28;;;;;;;3.80;1.63;;;1.50;99.90;;;;;;5033533;28;20464;-83
2022/04/11 00:58:55;;;;;;;2.00;0.90;;;1.40;99.90;;;;;;5033716;28;20413;-82
2022/04/11 01:01:21;;;;;;;3.50;1.60;;;1.40;99.90;;;;;;5033318;28;20474;-82
2022/04/11 01:03:46;;;;;;;2.80;1.70;;;1.30;99.90;;;;;;5015852;28;21327;-81
2022/04/11 01:06:12;;;;;;;2.90;1.90;;;1.30;99.90;;;;;;5033456;28;20174;-81
2022/04/11 01:08:37;;;;;;;4.20;1.50;;;1.30;99.90;;;;;;5033451;28;20170;-82
2022/04/11 01:11:03;;;;;;;2.60;1.80;;;1.50;99.90;;;;;;5033322;28;20573;-82
2022/04/11 01:13:29;;;;;;;10.33;1.80;;;1.60;99.90;;;;;;5032946;28;20222;-82
2022/04/11 01:15:57;;;;;;;3.40;1.60;;;1.70;99.90;;;;;;5033017;28;20355;-83
2022/04/11 01:18:23;;;;;;;2.80;1.60;;;1.80;99.90;;;;;;5033219;28;20441;-83
2022/04/11 01:20:49;;;;;;;4.57;1.57;;;1.80;99.90;;;;;;5033237;28;20813;-82
2022/04/11 01:23:15;;;;;;;2.40;1.50;;;1.80;99.90;;;;;;5033263;28;20423;-83
2022/04/11 01:25:42;;;;;;;4.33;1.03;;;1.60;99.90;;;;;;5033111;28;20432;-83
2022/04/11 01:28:07;;;;;;;1.63;1.33;;;1.50;99.90;;;;;;5033076;28;20261;-83
2022/04/11 01:30:33;;;;;;;3.33;1.37;;;1.40;99.90;;;;;;5032672;28;20827;-83
2022/04/11 01:32:58;;;;;;;5.33;1.73;;;1.40;99.90;;;;;;5033025;28;20197;-83
2022/04/11 01:35:26;;;;;;;1.67;1.30;;;1.50;99.90;;;;;;5033078;28;20166;-83
2022/04/11 01:37:53;;;;;;;2.77;1.40;;;1.50;99.90;;;;;;5033004;28;20646;-82
2022/04/11 01:40:20;;;;;;;6.90;1.43;;;1.50;99.90;;;;;;5032967;28;20416;-83
2022/04/11 01:42:46;;;;;;;3.63;0.97;;;1.40;99.90;;;;;;5032877;28;20463;-82
2022/04/11 01:45:13;;;;;;;2.47;1.30;;;1.50;99.90;;;;;;5032967;28;20470;-83
2022/04/11 01:47:39;;;;;;;2.63;1.40;;;1.40;99.90;;;;;;5014598;28;20800;-83
2022/04/11 01:50:06;;;;;;;4.20;1.57;;;1.50;99.90;;;;;;5032822;28;20783;-82
2022/04/11 01:52:32;;;;;;;2.60;1.03;;;1.50;99.90;;;;;;5032647;28;20476;-82
2022/04/11 01:54:57;;;;;;;4.10;1.27;;;1.50;99.90;;;;;;5033076;28;20779;-81
2022/04/11 01:57:23;;;;;;;2.43;1.20;;;1.30;99.90;;;;;;5032813;28;20178;-81
2022/04/11 01:59:48;;;;;;;6.20;1.67;;;1.20;99.90;;;;;;5032768;28;20217;-81
2022/04/11 02:02:14;;;;;;;6.73;1.47;;;1.20;99.90;;;;;;5032366;28;20180;-81
2022/04/11 02:04:39;;;;;;;6.43;1.60;;;1.00;99.90;;;;;;5033000;28;20194;-81
2022/04/11 02:07:06;;;;;;;2.73;1.60;;;0.90;99.90;;;;;;5032957;28;20214;-81
2022/04/11 02:09:31;;;;;;;2.17;1.40;;;0.90;99.90;;;;;;5032801;28;20224;-80
2022/04/11 02:11:57;;;;;;;2.90;1.30;;;0.80;99.90;;;;;;5032483;28;20473;-81
2022/04/11 02:14:22;;;;;;;2.77;1.33;;;0.80;99.90;;;;;;5032917;28;20182;-80
2022/04/11 02:16:48;;;;;;;7.10;2.30;;;0.80;99.90;;;;;;5032381;28;20183;-80
2022/04/11 02:19:13;;;;;;;5.60;1.47;;;0.80;99.90;;;;;;5032820;28;20166;-83
2022/04/11 02:21:38;;;;;;;6.03;1.87;;;0.70;99.90;;;;;;5032809;28;20194;-81
2022/04/11 02:24:04;;;;;;;5.37;2.07;;;0.80;99.90;;;;;;5032712;28;20205;-82
2022/04/11 02:26:30;;;;;;;5.00;2.10;;;0.80;99.90;;;;;;5032646;28;20189;-82
2022/04/11 02:28:55;;;;;;;7.43;1.53;;;0.90;99.90;;;;;;5032593;28;20418;-82
2022/04/11 02:31:21;;;;;;;8.43;1.57;;;1.00;99.90;;;;;;5032295;28;20217;-82
2022/04/11 02:33:46;;;;;;;3.77;2.00;;;1.00;99.90;;;;;;5032210;28;20177;-81
2022/04/11 02:36:12;;;;;;;5.80;1.53;;;1.00;99.90;;;;;;5031075;28;20194;-82
2022/04/11 02:38:37;;;;;;;3.47;2.37;;;1.00;99.90;;;;;;5032749;28;20170;-82
2022/04/11 02:41:03;;;;;;;3.90;1.90;;;1.00;99.90;;;;;;5013721;28;20177;-82
2022/04/11 02:43:28;;;;;;;3.63;1.37;;;1.10;99.90;;;;;;5032747;28;20578;-82
2022/04/11 02:45:54;;;;;;;5.83;1.73;;;1.00;99.90;;;;;;5032429;28;20171;-82
2022/04/11 02:48:19;;;;;;;11.90;1.77;;;1.10;99.90;;;;;;5014906;28;20177;-82
2022/04/11 02:50:45;;;;;;;4.53;1.87;;;1.20;99.90;;;;;;5032427;28;20268;-82
2022/04/11 02:53:10;;;;;;;1.37;1.00;;;1.20;99.90;;;;;;5032533;28;20506;-82
2022/04/11 02:55:36;;;;;;;3.70;1.60;;;1.20;99.90;;;;;;5032584;28;20170;-83
2022/04/11 02:58:01;;;;;;;3.50;1.53;;;1.20;99.90;;;;;;5032823;28;20170;-83
2022/04/11 03:00:27;;;;;;;3.40;1.57;;;1.20;99.90;;;;;;5035682;28;20281;-83
2022/04/11 03:02:52;;;;;;;5.90;1.63;;;1.20;99.90;;;;;;5035949;28;20174;-82
2022/04/11 03:05:18;;;;;;;8.00;2.77;;;1.20;99.90;;;;;;5035996;28;20242;-83
2022/04/11 03:07:43;;;;;;;3.20;1.53;;;1.20;99.90;;;;;;5035742;28;20320;-83
2022/04/11 03:10:09;;;;;;;5.17;1.83;;;1.20;99.90;;;;;;5017936;28;20592;-82
2022/04/11 03:12:35;;;;;;;2.07;1.30;;;1.20;99.90;;;;;;5017544;28;20229;-83
2022/04/11 03:15:00;;;;;;;3.40;2.00;;;1.20;99.90;;;;;;5035320;28;20221;-82
2022/04/11 03:17:26;;;;;;;5.53;1.87;;;1.20;99.90;;;;;;5035409;28;20540;-82
2022/04/11 03:19:51;;;;;;;4.20;2.80;;;1.20;99.90;;;;;;5035383;28;20166;-82
2022/04/11 03:22:17;;;;;;;3.50;1.47;;;1.30;99.90;;;;;;5035463;28;20202;-83
2022/04/11 03:24:42;;;;;;;3.53;2.20;;;1.30;99.90;;;;;;5035428;28;20244;-83
2022/04/11 03:27:08;;;;;;;2.30;1.10;;;1.30;99.90;;;;;;5035323;28;20162;-82
2022/04/11 03:29:33;;;;;;;3.50;1.83;;;1.30;99.90;;;;;;5035229;28;20166;-83
2022/04/11 03:32:08;;;;;;;7.40;2.77;;;1.40;99.90;;;;;;5035163;28;20244;-82
2022/04/11 03:34:34;;;;;;;8.53;3.43;;;1.40;99.90;;;;;;5018069;28;20193;-83
2022/04/11 03:37:02;;;;;;;4.43;2.07;;;1.40;99.90;;;;;;5035564;28;20421;-83
2022/04/11 03:39:28;;;;;;;4.80;1.50;;;1.40;99.90;;;;;;5035219;28;20620;-84
2022/04/11 03:41:56;;;;;;;3.00;2.10;;;1.40;99.90;;;;;;5035088;28;20470;-82
2022/04/11 03:44:22;;;;;;;6.03;2.33;;;1.40;99.90;;;;;;5016934;28;20420;-81
2022/04/11 03:46:47;;;;;;;2.40;1.50;;;1.40;99.90;;;;;;5034819;28;20985;-82
2022/04/11 03:49:13;;;;;;;4.67;1.87;;;1.30;99.90;;;;;;5035183;28;20174;-83
2022/04/11 03:51:38;;;;;;;3.93;1.87;;;1.10;99.90;;;;;;5035440;28;20347;-82
2022/04/11 03:54:04;;;;;;;4.30;1.10;;;0.90;99.90;;;;;;5035172;28;20821;-82
2022/04/11 03:56:33;;;;;;;5.80;2.10;;;0.80;99.90;;;;;;5035126;28;20649;-82
2022/04/11 03:58:58;;;;;;;3.87;2.07;;;0.70;99.90;;;;;;5034971;28;20162;-82
2022/04/11 04:01:25;;;;;;;10.83;2.40;;;0.70;99.90;;;;;;5034596;28;20421;-82
2022/04/11 04:03:50;;;;;;;2.63;1.53;;;0.60;99.90;;;;;;5034848;28;20653;-82
2022/04/11 04:06:16;;;;;;;4.57;2.10;;;0.60;99.90;;;;;;5034915;28;20417;-82
2022/04/11 04:08:42;;;;;;;4.77;1.40;;;0.70;99.90;;;;;;5034749;28;20646;-84
2022/04/11 04:11:08;;;;;;;3.00;1.83;;;0.60;99.90;;;;;;5034691;28;20213;-81
2022/04/11 04:13:34;;;;;;;2.30;2.00;;;0.50;99.90;;;;;;5034626;28;20214;-82
2022/04/11 04:16:00;;;;;;;2.10;1.40;;;0.60;99.90;;;;;;5016532;28;20865;-83
2022/04/11 04:18:26;;;;;;;3.73;2.17;;;0.70;99.90;;;;;;5034644;28;20909;-81
2022/04/11 04:20:52;;;;;;;3.00;1.50;;;0.60;99.90;;;;;;5034581;28;20471;-82
2022/04/11 04:23:17;;;;;;;3.23;2.23;;;0.60;99.90;;;;;;5034428;28;20178;-82
2022/04/11 04:25:43;;;;;;;2.93;1.73;;;0.80;99.90;;;;;;5016776;28;20260;-84
2022/04/11 04:28:08;;;;;;;3.87;2.27;;;0.70;99.90;;;;;;5034347;28;20178;-82
2022/04/11 04:30:34;;;;;;;3.50;2.00;;;0.60;99.90;;;;;;5033999;28;20576;-83
2022/04/11 04:33:08;;;;;;;5.37;2.17;;;0.60;99.90;;;;;;5016679;28;20285;-83
2022/04/11 04:35:37;;;;;;;5.40;2.33;;;0.50;99.90;;;;;;5034362;28;20170;-85
2022/04/11 04:38:03;;;;;;;3.30;2.00;;;0.40;99.90;;;;;;5034245;28;20974;-84
2022/04/11 04:40:38;;;;;;;4.90;2.03;;;0.40;99.90;;;;;;5034156;28;20870;-83
2022/04/11 04:43:08;;;;;;;4.70;2.93;;;0.40;99.90;;;;;;5034302;28;20873;-85
2022/04/11 04:45:35;;;;;;;8.53;2.80;;;0.40;99.90;;;;;;5033927;28;20936;-81
2022/04/11 04:48:00;;;;;;;5.57;2.90;;;0.30;99.90;;;;;;5034226;28;20477;-84
2022/04/11 04:50:26;;;;;;;10.00;2.90;;;0.40;99.90;;;;;;5033993;28;20796;-83
2022/04/11 04:52:55;;;;;;;5.67;2.10;;;0.40;99.90;;;;;;5034162;28;20273;-82
2022/04/11 04:55:28;;;;;;;3.30;2.67;;;0.40;99.90;;;;;;5016392;28;20216;-83
2022/04/11 04:57:57;;;;;;;4.63;2.83;;;0.40;99.90;;;;;;5016631;28;20414;-84
2022/04/11 05:00:23;;;;;;;4.67;2.37;;;0.40;99.90;;;;;;5034351;28;20752;-82
2022/04/11 05:02:48;;;;;;;2.53;2.00;;;0.50;99.90;;;;;;5034478;28;20424;-82
2022/04/11 05:05:17;;;;;;;9.77;2.60;;;0.50;99.90;;;;;;5035012;28;20205;-82
2022/04/11 05:07:43;;;;;;;5.57;2.77;;;0.50;99.90;;;;;;5017129;28;20544;-84
2022/04/11 05:10:09;;;;;;;6.30;2.60;;;0.60;99.90;;;;;;5035059;28;20421;-82
2022/04/11 05:12:42;;;;;;;3.77;2.07;;;0.70;99.90;;;;;;5017084;28;20237;-83
2022/04/11 05:15:09;;;;;;;4.10;2.37;;;0.90;99.90;;;;;;5035021;28;20511;-83
2022/04/11 05:17:35;;;;;;;13.90;3.53;;;1.20;99.90;;;;;;5034684;28;20424;-82
2022/04/11 05:20:02;;;;;;;9.73;2.50;;;2.10;99.90;;;;;;5034095;28;20897;-82
2022/04/11 05:22:28;;;;;;;4.97;2.73;;;2.10;99.90;;;;;;5033609;28;20779;-82
2022/04/11 05:24:53;;;;;;;6.30;3.03;;;2.30;99.90;;;;;;5034325;28;20424;-81
2022/04/11 05:27:19;;;;;;;5.10;2.53;;;2.30;99.90;;;;;;5034469;28;20241;-81
2022/04/11 05:29:45;;;;;;;5.60;2.87;;;2.50;99.90;;;;;;5034013;28;20181;-81
2022/04/11 05:32:10;;;;;;;7.87;2.80;;;3.10;99.90;;;;;;5034457;28;20205;-81
2022/04/11 05:34:36;;;;;;;6.90;2.70;;;3.70;99.90;;;;;;5034285;28;20178;-81
2022/04/11 05:37:02;;;;;;;5.97;2.90;;;4.20;99.90;;;;;;5033882;28;20189;-85
2022/04/11 05:39:27;;;;;;;3.33;2.67;;;4.50;1.00;;;;;;5034048;28;20193;-82
2022/04/11 05:41:53;;;;;;;3.80;2.17;;;4.90;1.00;;;;;;5033806;28;20179;-82
2022/04/11 05:44:18;;;;;;;6.40;2.17;;;5.20;1.00;;;;;;5034030;28;20179;-81
2022/04/11 05:46:46;;;;;;;3.27;2.03;;;5.50;99.90;;;;;;5032609;28;20177;-83
2022/04/11 05:49:11;;;;;;;7.33;2.20;;;5.70;99.90;;;;;;5033538;28;20183;-82
2022/04/11 05:51:37;;;;;;;4.30;2.33;;;6.10;99.90;;;;;;5033027;28;20803;-82
2022/04/11 05:54:02;;;;;;;3.43;2.10;;;6.60;99.90;;;;;;5033310;28;20174;-83
2022/04/11 05:56:28;;;;;;;6.83;2.03;;;7.30;1.00;;;;;;5033299;28;20181;-80
2022/04/11 05:58:53;;;;;;;4.63;1.33;;;7.70;1.00;;;;;;5033291;28;20510;-82
2022/04/11 06:01:19;;;;;;;5.90;2.50;;;8.30;1.00;;;;;;5033466;28;20168;-83
2022/04/11 06:03:45;;;;;;;8.73;2.07;;;8.90;99.90;;;;;;5034189;28;20177;-81
2022/04/11 06:06:10;;;;;;;2.60;0.87;;;9.50;99.90;;;;;;5015585;28;20178;-83
2022/04/11 06:08:36;;;;;;;6.37;1.60;;;9.90;99.90;;;;;;5032593;28;20170;-82
2022/04/11 06:11:01;;;;;;;9.73;1.50;;;10.20;99.90;;;;;;5030353;28;20271;-83
2022/04/11 06:13:27;;;;;;;4.43;1.50;;;10.50;99.90;;;;;;5033487;28;20224;-81
2022/04/11 06:15:55;;;;;;;7.13;1.30;;;10.80;99.90;;;;;;5032627;28;20173;-82
2022/04/11 06:18:24;;;;;;;2.77;1.00;;;11.20;99.90;;;;;;5032563;28;20175;-81
2022/04/11 06:20:52;;;;;;;3.00;1.03;;;11.80;99.90;;;;;;5032656;28;20424;-82
2022/04/11 06:23:18;;;;;;;4.10;1.97;;;11.80;99.90;;;;;;5014189;28;20448;-83
2022/04/11 06:25:46;;;;;;;5.50;1.20;;;11.60;99.90;;;;;;5032877;28;20913;-82
2022/04/11 06:28:12;;;;;;;4.27;1.40;;;11.00;99.90;;;;;;5032615;28;20170;-81
2022/04/11 06:30:37;;;;;;;11.10;0.93;;;11.00;99.90;;;;;;5031934;28;20413;-82
2022/04/11 06:33:03;;;;;;;5.37;1.40;;;10.90;99.90;;;;;;5032762;28;20536;-80
2022/04/11 06:35:28;;;;;;;2.37;1.30;;;11.00;99.90;;;;;;5037015;28;20214;-82
2022/04/11 06:37:54;;;;;;;3.70;1.20;;;10.80;99.90;;;;;;5019369;28;20608;-82
2022/04/11 06:40:22;;;;;;;3.50;1.00;;;10.90;99.90;;;;;;5037842;28;20185;-83
2022/04/11 06:42:48;;;;;;;3.57;1.00;;;12.00;99.90;;;;;;5037256;28;20171;-83
2022/04/11 06:45:14;;;;;;;4.37;1.10;;;12.70;99.90;;;;;;5035918;28;20426;-83
2022/04/11 06:47:40;;;;;;;2.93;1.10;;;13.00;97.60;;;;;;5035693;28;20182;-84
2022/04/11 06:50:06;;;;;;;1.97;0.87;;;13.30;90.00;;;;;;5035624;28;20411;-85
2022/04/11 06:52:32;;;;;;;2.27;1.10;;;12.90;78.60;;;;;;5035569;28;20478;-80
2022/04/11 06:54:57;;;;;;;3.60;1.63;;;13.50;87.80;;;;;;5035510;28;20413;-82
2022/04/11 06:57:29;;;;;;;4.47;1.10;;;13.10;70.90;;;;;;5035342;28;20229;-84
2022/04/11 06:59:54;;;;;;;3.37;1.30;;;13.90;75.30;;;;;;5034964;28;20643;-84
2022/04/11 07:02:23;;;;;;;6.07;1.77;;;14.30;68.80;;;;;;5035070;28;20509;-86
2022/04/11 07:04:50;;;;;;;3.83;1.67;;;14.10;57.70;;;;;;5035343;28;20210;-83
2022/04/11 07:07:16;;;;;;;2.07;1.23;;;13.80;54.50;;;;;;5035399;28;20431;-84
2022/04/11 07:09:41;;;;;;;4.40;1.60;;;13.00;50.80;;;;;;5017355;28;20417;-82
2022/04/11 07:12:10;;;;;;;4.50;0.87;;;13.00;54.40;;;;;;5017117;28;20619;-83
2022/04/11 07:14:36;;;;;;;5.33;1.60;;;13.60;54.40;;;;;;5034704;28;20170;-84
2022/04/11 07:17:04;;;;;;;1.93;0.90;;;14.20;55.00;;;;;;5034986;28;20508;-84
2022/04/11 07:19:33;;;;;;;5.50;1.63;;;14.60;50.80;;;;;;5034998;28;20619;-84
2022/04/11 07:21:58;;;;;;;3.50;1.20;;;15.40;51.80;;;;;;5017230;28;20445;-85
2022/04/11 07:24:27;;;;;;;3.60;1.20;;;16.10;48.90;;;;;;5032306;28;20456;-88
2022/04/11 07:26:52;;;;;;;2.43;1.10;;;16.10;39.10;;;;;;5034789;28;20264;-86
2022/04/11 07:29:18;;;;;;;3.00;1.30;;;15.90;33.70;;;;;;5034434;28;20521;-82
2022/04/11 07:31:43;;;;;;;3.90;1.07;;;16.60;37.90;;;;;;5034774;28;20203;-80
2022/04/11 07:34:15;;;;;;;7.47;1.30;;;16.80;34.80;;;;;;5034813;28;20178;-81
2022/04/11 07:36:40;;;;;;;4.83;1.13;;;15.90;26.40;;;;;;5034481;28;20177;-88
2022/04/11 07:39:06;;;;;;;4.50;1.20;;;16.30;30.30;;;;;;5034616;28;20420;-84
2022/04/11 07:41:32;;;;;;;2.70;0.70;;;16.80;32.00;;;;;;5034538;28;20185;-83
2022/04/11 07:43:58;;;;;;;3.57;0.50;;;17.30;34.00;;;;;;5034315;28;20181;-84
2022/04/11 07:46:23;;;;;;;3.33;1.07;;;17.80;34.10;;;;;;5033908;28;20180;-82
2022/04/11 07:48:52;;;;;;;4.40;1.10;;;17.90;30.10;;;;;;5034238;28;20417;-82
2022/04/11 07:51:23;;;;;;;3.73;1.27;;;17.70;27.40;;;;;;5034263;28;20602;-83
2022/04/11 07:53:49;;;;;;;3.70;1.10;;;18.00;27.60;;;;;;5032352;28;20447;-89
2022/04/11 07:56:14;;;;;;;2.30;0.77;;;17.70;23.30;;;;;;5034309;28;20424;-82
2022/04/11 07:58:40;;;;;;;3.63;1.60;;;18.30;27.50;;;;;;5034291;28;20177;-80
2022/04/11 08:01:05;;;;;;;1.77;0.70;;;18.50;26.90;;;;;;5033857;28;20189;-82
2022/04/11 08:03:31;;;;;;;5.07;1.47;;;18.10;21.70;;;;;;5034001;28;20175;-82
2022/04/11 08:05:56;;;;;;;2.80;1.17;;;18.40;24.60;;;;;;5034199;28;20173;-81
2022/04/11 08:08:22;;;;;;;6.40;1.90;;;18.60;23.70;;;;;;5033955;28;20171;-81
2022/04/11 08:10:47;;;;;;;3.50;1.10;;;19.30;27.90;;;;;;5033970;28;20185;-80
2022/04/11 08:13:13;;;;;;;2.40;0.87;;;19.60;28.30;;;;;;5033825;28;20276;-80
2022/04/11 08:15:38;;;;;;;5.23;1.00;;;19.00;19.60;;;;;;5033680;28;20179;-80
2022/04/11 08:18:04;;;;;;;5.37;1.57;;;19.70;24.10;;;;;;5031192;28;20582;-80
2022/04/11 08:20:30;;;;;;;3.97;1.33;;;19.00;18.60;;;;;;5033774;28;20167;-82
2022/04/11 08:22:56;;;;;;;3.03;0.63;;;19.20;18.50;;;;;;5033917;28;20159;-82
2022/04/11 08:25:21;;;;;;;6.43;1.77;;;19.70;21.30;;;;;;5033654;28;20410;-83
2022/04/11 08:27:47;;;;;;;4.60;1.57;;;19.90;21.40;;;;;;5033688;28;20174;-80
2022/04/11 08:30:13;;;;;;;5.43;1.67;;;20.10;20.50;;;;;;5015596;28;20174;-82
2022/04/11 08:32:43;;;;;;;6.60;1.40;;;20.00;19.60;;;;;;5033541;28;20206;-80
2022/04/11 08:35:09;;;;;;;3.43;1.00;;;19.50;14.10;;;;;;5031538;28;20421;-82
2022/04/11 08:37:37;;;;;;;8.90;2.23;;;19.50;11.80;;;;;;5033498;28;20500;-83
2022/04/11 08:40:23;;;;;;;4.70;2.00;;;20.00;15.80;;;;;;5033627;28;20417;-83
2022/04/11 08:42:51;;;;;;;6.30;1.40;;;20.60;19.60;;;;;;5030196;28;20504;-81
2022/04/11 08:45:22;;;;;;;2.77;1.43;;;20.90;19.60;;;;;;5033199;28;20425;-82
2022/04/11 08:47:48;;;;;;;3.10;1.60;;;20.70;16.30;;;;;;5031244;28;20920;-82
2022/04/11 08:50:14;;;;;;;4.50;1.33;;;21.10;17.70;;;;;;5016080;28;21261;-83
2022/04/11 08:52:41;;;;;;;3.07;1.30;;;20.70;14.80;;;;;;5033329;28;20559;-80
2022/04/11 08:55:08;;;;;;;3.43;1.30;;;20.70;13.20;;;;;;5033488;28;20304;-82
2022/04/11 08:57:37;;;;;;;2.90;1.50;;;21.00;15.00;;;;;;5032620;28;20417;-80
2022/04/11 09:00:09;;;;;;;3.50;1.70;;;20.70;11.10;;;;;;5032781;28;20405;-80
2022/04/11 09:02:35;;;;;;;2.80;1.10;;;20.30;8.50;;;;;;5033153;28;20889;-80
2022/04/11 09:05:02;;;;;;;4.77;1.20;;;20.90;10.60;;;;;;5033052;28;20457;-82
2022/04/11 09:07:27;;;;;;;5.80;1.23;;;20.80;8.20;;;;;;5015400;28;20228;-79
2022/04/11 09:09:59;;;;;;;3.50;1.00;;;20.40;4.50;;;;;;5033078;28;20436;-81
2022/04/11 09:12:24;;;;;;;3.83;0.50;;;20.50;1.90;;;;;;5030041;28;20222;-81
2022/04/11 09:14:53;;;;;;;2.73;0.90;;;20.80;2.40;;;;;;5032663;28;20436;-80
2022/04/11 09:17:22;;;;;;;4.80;1.67;;;20.50;8.10;;;;;;5032897;28;20217;-80
2022/04/11 09:20:04;;;;;;;4.23;1.20;;;20.50;1.00;;;;;;5030909;28;20448;-81
2022/04/11 09:22:32;;;;;;;2.93;1.43;;;20.90;1.10;;;;;;5030808;28;20418;-80
2022/04/11 09:25:24;;;;;;;3.60;1.00;;;21.10;2.00;;;;;;5032995;28;20905;-79
2022/04/11 09:28:11;;;;;;;4.20;1.20;;;21.10;1.70;;;;;;5030871;28;20496;-80
2022/04/11 09:30:38;;;;;;;2.97;0.80;;;20.70;1.00;;;;;;5031296;28;20413;-82
2022/04/11 09:33:05;;;;;;;3.07;1.30;;;19.90;1.00;;;;;;5032823;28;20418;-82
2022/04/11 09:35:35;;;;;;;2.70;0.40;;;18.70;1.00;;;;;;5032645;28;20421;-80
2022/04/11 09:38:09;;;;;;;1.50;0.40;;;19.70;1.00;;;;;;5032541;28;20414;-82
2022/04/11 09:40:36;;;;;;;1.80;0.40;;;20.50;1.00;;;;;;5032497;28;20503;-82
2022/04/11 09:43:02;;;;;;;1.00;0.20;;;20.90;1.00;;;;;;5032516;28;20417;-80
2022/04/11 09:45:28;;;;;;;3.27;0.80;;;21.20;1.00;;;;;;5032147;28;20983;-82
2022/04/11 09:48:02;;;;;;;2.27;0.60;;;20.90;1.00;;;;;;5032547;28;20166;-83
2022/04/11 09:50:31;;;;;;;2.53;1.10;;;20.80;1.00;;;;;;5030093;28;20177;-80
2022/04/11 09:53:08;;;;;;;4.17;0.70;;;20.80;1.00;;;;;;5032431;28;20496;-80
2022/04/11 09:55:35;;;;;;;2.90;0.70;;;21.50;1.00;;;;;;5030891;28;20500;-80
2022/04/11 09:58:05;;;;;;;1.57;0.37;;;19.60;1.00;;;;;;5032350;28;20472;-80
2022/04/11 10:00:36;;;;;;;1.30;0.27;;;21.00;1.00;;;;;;5032092;28;20404;-82
2022/04/11 10:03:02;;;;;;;4.63;0.53;;;21.40;1.00;;;;;;5032351;28;20409;-81
2022/04/11 10:05:28;;;;;;;2.30;0.37;;;21.40;1.00;;;;;;5032435;28;20956;-81
2022/04/11 10:07:55;;;;;;;5.10;0.60;;;21.40;1.00;;;;;;5034269;28;20409;-81
2022/04/11 10:10:24;;;;;;;1.23;0.30;;;21.20;1.00;;;;;;5036285;28;20581;-81
2022/04/11 10:12:53;;;;;;;1.90;0.40;;;21.30;1.00;;;;;;5035965;28;20513;-82
2022/04/11 10:15:22;;;;;;;2.40;0.33;;;20.50;1.00;;;;;;5035808;28;20792;-82
2022/04/11 10:17:49;;;;;;;3.70;0.60;;;21.20;1.00;;;;;;5033748;28;20421;-81
2022/04/11 10:20:29;;;;;;;1.00;0.33;;;21.00;1.00;;;;;;5018162;28;20425;-82
2022/04/11 10:23:07;;;;;;;3.20;0.60;;;21.20;1.00;;;;;;5034659;28;20557;-83
2022/04/11 10:25:37;;;;;;;1.80;0.30;;;21.50;1.00;;;;;;5034390;28;20499;-83
2022/04/11 10:28:19;;;;;;;1.93;0.40;;;21.30;1.00;;;;;;5035863;28;20441;-81
2022/04/11 10:31:02;;;;;;;1.67;0.30;;;21.10;1.00;;;;;;5035738;28;20405;-82
2022/04/11 10:33:50;;;;;;;3.20;0.50;;;21.10;1.00;;;;;;5033867;28;20424;-84
2022/04/11 10:36:28;;;;;;;3.20;0.40;;;20.90;1.00;;;;;;5034548;28;20421;-84
2022/04/11 10:39:12;;;;;;;1.00;0.20;;;20.60;1.00;;;;;;5034328;28;20405;-81
2022/04/11 10:42:11;;;;;;;1.10;0.30;;;21.30;1.00;;;;;;5034632;28;21037;-81
2022/04/11 10:44:50;;;;;;;4.00;0.20;;;20.90;1.00;;;;;;5002163;28;20799;-82
2022/04/11 10:47:15;;;;;;;1.70;0.30;;;21.40;1.00;;;;;;5034307;28;20440;-80
2022/04/11 10:49:53;;;;;;;1.57;0.60;;;20.10;1.00;;;;;;5035501;28;20964;-80
2022/04/11 10:52:36;;;;;;;3.90;0.37;;;20.40;1.00;;;;;;5035447;28;20228;-80
2022/04/11 10:55:09;;;;;;;2.60;0.53;;;21.20;1.00;;;;;;5017316;28;20417;-81
2022/04/11 10:57:55;;;;;;;1.63;0.30;;;20.80;1.00;;;;;;5035570;28;20917;-81
2022/04/11 11:00:28;;;;;;;3.80;0.70;;;20.60;1.00;;;;;;5017934;28;20421;-81
2022/04/11 11:02:54;;;;;;;1.70;0.47;;;20.80;1.00;;;;;;5036653;28;20465;-81
2022/04/11 11:05:25;;;;;;;4.03;0.30;;;20.90;1.00;;;;;;5035939;28;20459;-81
2022/04/11 11:08:12;;;;;;;3.73;0.40;;;21.40;1.00;;;;;;5037100;28;20754;-81
2022/04/11 11:10:49;;;;;;;2.67;0.30;;;21.10;1.00;;;;;;5035772;28;20455;-80
2022/04/11 11:13:30;;;;;;;1.43;0.40;;;20.90;1.00;;;;;;5035760;28;20448;-81
2022/04/11 11:15:57;;;;;;;1.70;0.33;;;21.00;1.00;;;;;;5035434;28;20428;-81
2022/04/11 11:18:23;;;;;;;2.63;0.50;;;20.90;1.00;;;;;;5035604;28;20416;-81
2022/04/11 11:20:58;;;;;;;2.13;0.37;;;20.60;1.00;;;;;;5034934;28;20626;-81
2022/04/11 11:23:23;;;;;;;2.90;0.50;;;20.50;1.00;;;;;;5035552;28;20178;-81
2022/04/11 11:25:50;;;;;;;3.23;0.50;;;20.90;1.00;;;;;;5035465;28;20944;-81
2022/04/11 11:28:16;;;;;;;0.97;0.20;;;20.90;1.00;;;;;;5017676;28;20605;-81
2022/04/11 11:30:42;;;;;;;1.90;0.23;;;20.90;1.00;;;;;;5035059;28;20409;-81
2022/04/11 11:33:11;;;;;;;1.57;0.30;;;20.90;1.00;;;;;;5035276;28;20917;-81
2022/04/11 11:35:48;;;;;;;1.90;0.93;;;21.10;1.00;;;;;;5035356;28;20465;-81
2022/04/11 11:38:14;;;;;;;2.80;0.30;;;20.70;1.00;;;;;;5035176;28;20913;-82
2022/04/11 11:40:43;;;;;;;2.43;0.60;;;20.80;1.00;;;;;;5035239;28;20421;-81
2022/04/11 11:43:12;;;;;;;1.53;0.30;;;20.50;1.00;;;;;;5035219;28;20605;-81
2022/04/11 11:45:40;;;;;;;2.23;0.40;;;20.60;1.00;;;;;;5034825;28;20504;-80
2022/04/11 11:48:23;;;;;;;2.80;0.20;;;20.70;1.00;;;;;;5035065;28;20417;-81
2022/04/11 11:50:51;;;;;;;2.43;1.23;;;20.80;1.00;;;;;;5037339;28;20466;-81
2022/04/11 11:53:18;;;;;;;1.70;0.20;;;20.90;1.00;;;;;;5040721;28;20433;-81
2022/04/11 11:55:50;;;;;;;1.80;0.50;;;21.10;1.00;;;;;;5018580;28;20471;-81
2022/04/11 11:58:16;;;;;;;2.77;0.67;;;21.20;1.00;;;;;;5017992;28;20988;-84
2022/04/11 12:00:46;;;;;;;1.87;0.40;;;21.50;1.00;;;;;;5036116;28;20442;-82
2022/04/11 12:06:03;;;;;;;2.40;0.70;;;20.80;1.00;;;;;;5035014;28;20513;-81
2022/04/11 12:08:32;;;;;;;1.87;0.40;;;20.80;1.00;;;;;;5034785;28;20409;-81
2022/04/11 12:11:02;;;;;;;3.77;0.60;;;20.40;1.00;;;;;;5034956;28;20416;-81
2022/04/11 12:13:33;;;;;;;1.60;0.40;;;20.50;1.00;;;;;;5034402;28;20492;-83
2022/04/11 12:16:25;;;;;;;1.43;0.37;;;20.80;1.00;;;;;;5034757;28;20417;-84
2022/04/11 12:18:53;;;;;;;2.23;0.50;;;21.20;1.00;;;;;;5030239;28;20475;-81
2022/04/11 12:21:27;;;;;;;1.50;0.50;;;20.50;1.00;;;;;;5034622;28;20554;-84
2022/04/11 12:23:53;;;;;;;2.03;0.47;;;20.50;1.00;;;;;;5016930;28;20467;-84
2022/04/11 12:26:29;;;;;;;1.33;0.30;;;20.40;1.00;;;;;;5034496;28;20938;-84
2022/04/11 12:28:55;;;;;;;1.27;0.57;;;19.80;1.00;;;;;;5033849;28;20207;-83
2022/04/11 12:31:22;;;;;;;2.07;0.47;;;20.60;1.00;;;;;;5033270;28;20928;-81
2022/04/11 12:33:49;;;;;;;1.53;0.50;;;21.20;1.00;;;;;;5034296;28;20413;-81
2022/04/11 12:36:20;;;;;;;1.40;0.43;;;21.30;1.00;;;;;;5034201;28;20425;-81
2022/04/11 12:38:54;;;;;;;3.77;0.70;;;21.00;1.00;;;;;;5034069;28;20905;-83
2022/04/11 12:41:43;;;;;;;2.73;0.97;;;21.40;1.00;;;;;;5033994;28;20456;-83
2022/04/11 12:44:19;;;;;;;2.53;0.60;;;20.70;1.00;;;;;;5033686;28;20448;-82
2022/04/11 12:47:06;;;;;;;2.20;0.60;;;20.70;1.00;;;;;;5016308;28;20420;-85
2022/04/11 12:49:49;;;;;;;1.67;0.50;;;20.30;1.00;;;;;;5034055;28;20409;-82
2022/04/11 12:52:23;;;;;;;1.13;0.30;;;20.60;1.00;;;;;;5033926;28;20444;-83
2022/04/11 12:55:04;;;;;;;3.00;0.60;;;20.60;1.00;;;;;;5034144;28;20413;-83
2022/04/11 12:57:32;;;;;;;1.27;0.30;;;19.70;1.00;;;;;;5033946;28;20508;-83
2022/04/11 13:00:16;;;;;;;1.50;0.50;;;20.40;1.00;;;;;;5033592;28;20953;-84
2022/04/11 13:02:42;;;;;;;1.37;0.43;;;20.40;1.00;;;;;;5033926;28;20472;-84